Time;durP1;ratioP1;P1;durP2;ratioP2;P2;SDS_P1;SDS_P2;PMS_P1;PMS_P2;Temp;Humidity;BMP_temperature;BMP_pressure;BME280_temperature;BME280_humidity;BME280_pressure;Samples;Min_cycle;Max_cycle;Signal;HPM_P1;HPM_P2
2022/09/02 00:00:13;;;;;;;;;;;;;;;24.36;60.20;99938.06;7314462;19;128995;-38
2022/09/02 00:02:38;;;;;;;;;;;;;;;24.36;61.08;99938.84;7311027;19;130076;-38
2022/09/02 00:05:04;;;;;;;;;;;;;;;24.35;60.96;99939.84;7315075;19;129256;-39
2022/09/02 00:07:29;;;;;;;;;;;;;;;24.35;60.93;99931.13;7313158;19;128883;-37
2022/09/02 00:09:55;;;;;;;;;;;;;;;24.35;61.19;99934.59;7314542;19;129049;-38
2022/09/02 00:12:20;;;;;;;;;;;;;;;24.37;60.49;99934.44;7314142;19;129750;-38
2022/09/02 00:14:46;;;;;;;;;;;;;;;24.34;60.33;99932.94;7315873;19;129674;-38
2022/09/02 00:17:12;;;;;;;;;;;;;;;24.35;60.58;99925.88;7312303;19;130154;-38
2022/09/02 00:19:37;;;;;;;;;;;;;;;24.35;60.84;99924.06;7315585;19;129055;-38
2022/09/02 00:22:05;;;;;;;;;;;;;;;24.35;60.65;99924.06;7311249;19;129392;-38
2022/09/02 00:24:30;;;;;;;;;;;;;;;24.35;60.71;99923.25;7314574;19;129731;-38
2022/09/02 00:26:56;;;;;;;;;;;;;;;24.33;60.35;99920.75;7313312;19;129839;-38
2022/09/02 00:29:21;;;;;;;;;;;;;;;24.23;60.85;99898.16;7313512;19;129691;-38
2022/09/02 00:31:47;;;;;;;;;;;;;;;24.34;60.20;99917.19;7313646;19;129633;-38
2022/09/02 00:34:12;;;;;;;;;;;;;;;24.37;60.52;99910.78;7314829;19;129490;-38
2022/09/02 00:36:37;;;;;;;;;;;;;;;24.36;60.24;99920.47;7312680;19;129141;-38
2022/09/02 00:39:03;;;;;;;;;;;;;;;24.33;60.15;99909.41;7314590;19;129075;-38
2022/09/02 00:41:29;;;;;;;;;;;;;;;24.36;60.68;99917.03;7312190;19;129952;-39
2022/09/02 00:44:06;;;;;;;;;;;;;;;24.34;60.90;99911.94;7313297;19;129656;-38
2022/09/02 00:46:32;;;;;;;;;;;;;;;24.36;60.27;99919.66;7312885;19;129265;-38
2022/09/02 00:49:03;;;;;;;;;;;;;;;24.35;60.62;99921.44;7313850;19;129303;-38
2022/09/02 00:51:32;;;;;;;;;;;;;;;24.34;60.22;99921.59;7313120;19;129196;-38
2022/09/02 00:53:57;;;;;;;;;;;;;;;24.34;60.99;99916.34;7314734;19;129342;-38
2022/09/02 00:56:25;;;;;;;;;;;;;;;24.33;60.35;99926.03;7313628;19;129544;-38
2022/09/02 00:58:51;;;;;;;;;;;;;;;24.26;60.38;99903.94;7312559;19;129158;-38
2022/09/02 01:01:17;;;;;;;;;;;;;;;24.32;59.98;99913.88;7312458;19;130448;-38
2022/09/02 01:03:42;;;;;;;;;;;;;;;24.34;60.41;99917.19;7312618;19;131338;-38
2022/09/02 01:06:10;;;;;;;;;;;;;;;24.33;59.87;99915.50;7312477;19;128983;-38
2022/09/02 01:08:37;;;;;;;;;;;;;;;24.23;60.27;99898.97;7313540;19;130113;-38
2022/09/02 01:11:03;;;;;;;;;;;;;;;24.34;60.55;99916.34;7313025;19;129501;-38
2022/09/02 01:13:29;;;;;;;;;;;;;;;24.34;60.65;99914.56;7312839;19;130415;-38
2022/09/02 01:15:57;;;;;;;;;;;;;;;24.34;60.69;99919.81;7313209;19;129215;-38
2022/09/02 01:18:24;;;;;;;;;;;;;;;24.23;60.48;99893.72;7312642;19;129162;-38
2022/09/02 01:20:50;;;;;;;;;;;;;;;24.35;60.30;99908.31;7314099;19;129095;-39
2022/09/02 01:23:16;;;;;;;;;;;;;;;24.36;60.71;99912.56;7319215;19;129721;-38
2022/09/02 01:25:42;;;;;;;;;;;;;;;24.34;60.05;99917.19;7319736;19;128823;-38
2022/09/02 01:28:09;;;;;;;;;;;;;;;24.23;60.49;99891.09;7319493;19;128821;-38
2022/09/02 01:30:36;;;;;;;;;;;;;;;24.33;60.38;99905.00;7320891;19;130550;-38
2022/09/02 01:33:01;;;;;;;;;;;;;;;24.33;59.86;99909.41;7318469;19;129458;-38
2022/09/02 01:35:27;;;;;;;;;;;;;;;24.34;60.42;99909.28;7321889;19;129056;-38
2022/09/02 01:37:56;;;;;;;;;;;;;;;24.34;60.12;99906.66;7316883;19;129268;-38
2022/09/02 01:40:21;;;;;;;;;;;;;;;24.33;60.10;99910.25;7318642;19;130099;-38
2022/09/02 01:42:47;;;;;;;;;;;;;;;24.34;60.44;99906.66;7316913;19;130284;-38
2022/09/02 01:45:14;;;;;;;;;;;;;;;24.31;60.52;99906.13;7318844;19;129870;-37
2022/09/02 01:47:39;;;;;;;;;;;;;;;24.32;60.08;99913.03;7317460;19;129484;-38
2022/09/02 01:50:05;;;;;;;;;;;;;;;24.33;60.00;99912.88;7318680;19;129139;-38
2022/09/02 01:52:30;;;;;;;;;;;;;;;24.34;59.88;99914.56;7318647;19;129248;-38
2022/09/02 01:54:56;;;;;;;;;;;;;;;24.30;60.10;99900.03;7319565;19;128991;-37
2022/09/02 01:57:24;;;;;;;;;;;;;;;24.32;59.67;99899.88;7316802;19;129042;-38
2022/09/02 01:59:50;;;;;;;;;;;;;;;24.33;60.24;99905.00;7318428;19;129331;-38
2022/09/02 02:02:18;;;;;;;;;;;;;;;24.32;60.07;99895.47;7316877;19;129368;-38
2022/09/02 02:04:44;;;;;;;;;;;;;;;24.33;59.89;99896.28;7319185;19;128822;-38
2022/09/02 02:07:11;;;;;;;;;;;;;;;24.33;59.39;99891.84;7316406;19;129071;-38
2022/09/02 02:09:37;;;;;;;;;;;;;;;24.34;59.89;99896.16;7318367;19;129238;-38
2022/09/02 02:12:03;;;;;;;;;;;;;;;24.33;60.01;99893.66;7318040;19;130241;-38
2022/09/02 02:14:29;;;;;;;;;;;;;;;24.33;59.69;99889.22;7318506;19;128907;-38
2022/09/02 02:16:54;;;;;;;;;;;;;;;24.31;59.72;99895.63;7317040;19;129487;-38
2022/09/02 02:19:19;;;;;;;;;;;;;;;24.30;59.87;99892.16;7318282;19;130043;-38
2022/09/02 02:21:45;;;;;;;;;;;;;;;24.32;60.39;99892.84;7316391;19;129298;-38
2022/09/02 02:24:10;;;;;;;;;;;;;;;24.21;59.79;99876.47;7319739;19;129097;-38
2022/09/02 02:26:36;;;;;;;;;;;;;;;24.31;59.87;99893.81;7318129;19;130436;-38
2022/09/02 02:29:01;;;;;;;;;;;;;;;24.32;60.33;99886.75;7318567;19;130262;-38
2022/09/02 02:31:26;;;;;;;;;;;;;;;24.32;59.77;99887.59;7319372;19;130671;-38
2022/09/02 02:33:52;;;;;;;;;;;;;;;24.33;59.64;99888.41;7316503;19;129533;-38
2022/09/02 02:36:17;;;;;;;;;;;;;;;24.33;59.94;99891.03;7317570;19;129493;-39
2022/09/02 02:38:45;;;;;;;;;;;;;;;24.29;59.38;99893.16;7318296;19;129208;-38
2022/09/02 02:41:10;;;;;;;;;;;;;;;24.30;60.09;99889.53;7317539;19;129962;-38
2022/09/02 02:43:36;;;;;;;;;;;;;;;24.30;59.90;99892.16;7318468;19;129135;-38
2022/09/02 02:46:02;;;;;;;;;;;;;;;24.22;60.30;99875.50;7317052;19;129486;-38
2022/09/02 02:48:27;;;;;;;;;;;;;;;24.31;60.44;99887.75;7317218;19;129109;-38
2022/09/02 02:50:56;;;;;;;;;;;;;;;24.30;59.95;99889.53;7317510;19;130352;-38
2022/09/02 02:53:21;;;;;;;;;;;;;;;24.29;60.41;99877.38;7316899;19;128975;-38
2022/09/02 02:55:46;;;;;;;;;;;;;;;24.19;59.40;99866.13;7316908;19;129297;-38
2022/09/02 02:58:12;;;;;;;;;;;;;;;24.30;59.77;99879.03;7316318;19;129353;-38
2022/09/02 03:00:37;;;;;;;;;;;;;;;24.30;59.68;99886.91;7317427;19;129821;-38
2022/09/02 03:03:05;;;;;;;;;;;;;;;24.29;60.14;99880.00;7314139;19;129622;-38
2022/09/02 03:05:31;;;;;;;;;;;;;;;24.30;59.35;99886.06;7317055;19;129440;-38
2022/09/02 03:07:56;;;;;;;;;;;;;;;24.30;59.80;99883.44;7313486;19;130369;-37
2022/09/02 03:10:22;;;;;;;;;;;;;;;24.30;59.62;99889.53;7316019;19;129216;-38
2022/09/02 03:12:49;;;;;;;;;;;;;;;24.22;59.86;99871.06;7315516;19;128762;-38
2022/09/02 03:15:16;;;;;;;;;;;;;;;24.31;60.22;99891.19;7316357;19;128977;-38
2022/09/02 03:17:42;;;;;;;;;;;;;;;24.30;59.62;99889.53;7313104;19;129821;-38
2022/09/02 03:20:07;;;;;;;;;;;;;;;24.29;59.61;99885.28;7316500;19;129785;-38
2022/09/02 03:22:34;;;;;;;;;;;;;;;24.28;59.62;99886.22;7314361;19;129263;-38
2022/09/02 03:25:00;;;;;;;;;;;;;;;24.29;59.34;99885.28;7316898;19;129085;-38
2022/09/02 03:27:25;;;;;;;;;;;;;;;24.30;59.69;99889.53;7313653;19;131102;-38
2022/09/02 03:29:50;;;;;;;;;;;;;;;24.30;60.32;99894.78;7315407;19;129096;-38
2022/09/02 03:32:15;;;;;;;;;;;;;;;24.30;59.87;99886.91;7315721;19;129455;-38
2022/09/02 03:34:41;;;;;;;;;;;;;;;24.30;59.51;99883.44;7316175;19;129501;-38
2022/09/02 03:37:06;;;;;;;;;;;;;;;24.20;59.47;99865.13;7314036;19;130446;-38
2022/09/02 03:39:31;;;;;;;;;;;;;;;24.28;60.02;99883.59;7316002;19;129290;-38
2022/09/02 03:41:56;;;;;;;;;;;;;;;24.29;59.61;99885.28;7314783;19;128997;-38
2022/09/02 03:44:22;;;;;;;;;;;;;;;24.29;59.67;99885.28;7306973;19;130170;-38
2022/09/02 03:46:47;;;;;;;;;;;;;;;24.31;60.17;99885.91;7313405;19;129176;-38
2022/09/02 03:49:12;;;;;;;;;;;;;;;24.29;59.42;99882.63;7315329;19;131132;-38
2022/09/02 03:51:41;;;;;;;;;;;;;;;24.26;60.00;99879.47;7314585;19;129168;-37
2022/09/02 03:54:07;;;;;;;;;;;;;;;24.29;60.18;99881.81;7313697;19;131221;-39
2022/09/02 03:56:32;;;;;;;;;;;;;;;24.28;59.74;99875.72;7314051;19;130229;-38
2022/09/02 03:58:58;;;;;;;;;;;;;;;24.27;59.50;99883.75;7314980;19;130846;-37
2022/09/02 04:01:24;;;;;;;;;;;;;;;24.28;60.23;99875.72;7313932;19;129206;-38
2022/09/02 04:03:50;;;;;;;;;;;;;;;24.27;59.66;99868.81;7313698;19;128964;-38
2022/09/02 04:06:17;;;;;;;;;;;;;;;24.28;59.75;99869.63;7312508;19;129025;-38
2022/09/02 04:08:43;;;;;;;;;;;;;;;24.26;59.92;99868.97;7314190;19;131302;-38
2022/09/02 04:11:11;;;;;;;;;;;;;;;24.27;59.64;99874.06;7315142;19;128900;-38
2022/09/02 04:13:37;;;;;;;;;;;;;;;24.25;59.50;99873.38;7312159;19;130253;-38
2022/09/02 04:16:07;;;;;;;;;;;;;;;24.25;60.05;99869.94;7312128;19;129317;-38
2022/09/02 04:18:32;;;;;;;;;;;;;;;24.27;59.96;99874.06;7313297;19;129651;-38
2022/09/02 04:20:59;;;;;;;;;;;;;;;24.28;59.58;99882.75;7315011;19;129282;-38
2022/09/02 04:23:24;;;;;;;;;;;;;;;24.28;59.55;99875.72;7311354;19;129026;-38
2022/09/02 04:25:49;;;;;;;;;;;;;;;24.15;59.31;99859.50;7313595;19;129548;-38
2022/09/02 04:28:14;;;;;;;;;;;;;;;24.27;59.81;99876.69;7312941;19;129478;-37
2022/09/02 04:30:41;;;;;;;;;;;;;;;24.28;59.34;99875.72;7312839;19;130359;-38
2022/09/02 04:33:06;;;;;;;;;;;;;;;24.27;59.19;99879.31;7313259;19;130924;-38
2022/09/02 04:35:31;;;;;;;;;;;;;;;24.27;59.64;99879.31;7313632;19;129465;-38
2022/09/02 04:37:57;;;;;;;;;;;;;;;24.25;59.77;99876.00;7308421;19;129748;-38
2022/09/02 04:40:23;;;;;;;;;;;;;;;24.25;59.96;99881.28;7313107;19;129210;-38
2022/09/02 04:42:48;;;;;;;;;;;;;;;24.17;59.34;99868.06;7311489;19;129542;-38
2022/09/02 04:45:14;;;;;;;;;;;;;;;24.24;59.08;99878.81;7314084;19;129156;-38
2022/09/02 04:47:39;;;;;;;;;;;;;;;24.25;59.61;99881.28;7307748;19;130907;-38
2022/09/02 04:50:05;;;;;;;;;;;;;;;24.27;58.89;99886.38;7313699;19;130964;-38
2022/09/02 04:52:30;;;;;;;;;;;;;;;24.26;59.62;99872.41;7311970;19;128968;-38
2022/09/02 04:54:55;;;;;;;;;;;;;;;24.27;59.36;99876.69;7313725;19;130215;-38
2022/09/02 04:57:21;;;;;;;;;;;;;;;24.26;59.48;99882.09;7314125;19;129694;-38
2022/09/02 04:59:46;;;;;;;;;;;;;;;24.23;59.86;99883.22;7320353;19;128929;-38
2022/09/02 05:02:11;;;;;;;;;;;;;;;24.16;59.40;99866.41;7318048;19;129084;-39
2022/09/02 05:04:37;;;;;;;;;;;;;;;24.27;59.33;99878.50;7319157;19;129767;-39
2022/09/02 05:07:02;;;;;;;;;;;;;;;24.25;59.14;99886.53;7318602;19;129460;-38
2022/09/02 05:09:28;;;;;;;;;;;;;;;24.24;59.37;99889.31;7321317;19;129574;-38
2022/09/02 05:11:56;;;;;;;;;;;;;;;24.15;59.77;99870.00;7320266;19;129290;-38
2022/09/02 05:14:22;;;;;;;;;;;;;;;24.25;59.27;99889.16;7319168;19;129478;-38
2022/09/02 05:16:50;;;;;;;;;;;;;;;24.13;59.39;99868.53;7318628;19;130245;-38
2022/09/02 05:19:16;;;;;;;;;;;;;;;24.22;59.76;99886.84;7317984;19;129958;-38
2022/09/02 05:21:42;;;;;;;;;;;;;;;24.23;58.97;99877.97;7320593;19;129305;-38
2022/09/02 05:24:08;;;;;;;;;;;;;;;24.23;59.48;99890.25;7320835;19;129755;-38
2022/09/02 05:26:34;;;;;;;;;;;;;;;24.23;59.79;99882.38;7317806;19;131444;-38
2022/09/02 05:29:00;;;;;;;;;;;;;;;24.23;59.58;99885.00;7319130;19;129019;-38
2022/09/02 05:31:27;;;;;;;;;;;;;;;24.23;59.07;99885.84;7317163;19;130187;-38
2022/09/02 05:33:53;;;;;;;;;;;;;;;24.23;59.63;99885.84;7319910;19;130698;-38
2022/09/02 05:36:19;;;;;;;;;;;;;;;24.23;59.67;99885.84;7318236;19;131292;-38
2022/09/02 05:38:45;;;;;;;;;;;;;;;24.23;59.37;99880.59;7319169;19;129154;-38
2022/09/02 05:41:13;;;;;;;;;;;;;;;24.11;59.72;99868.63;7320603;19;128940;-38
2022/09/02 05:43:39;;;;;;;;;;;;;;;24.21;59.53;99874.66;7316809;19;130083;-38
2022/09/02 05:46:06;;;;;;;;;;;;;;;24.24;59.48;99882.25;7301300;19;129369;-38
2022/09/02 05:51:16;;;;;;;;;;;;;;;24.22;59.43;99868.44;7316409;19;130170;-38
2022/09/02 05:53:41;;;;;;;;;;;;;;;24.23;59.50;99864.81;7315511;19;130413;-39
2022/09/02 05:56:06;;;;;;;;;;;;;;;24.24;59.53;99865.66;7317878;19;129406;-38
2022/09/02 05:58:32;;;;;;;;;;;;;;;24.21;59.12;99864.16;7313628;19;129021;-38
2022/09/02 06:00:57;;;;;;;;;;;;;;;24.12;59.36;99848.47;7317338;19;129246;-37
2022/09/02 06:03:23;;;;;;;;;;;;;;;24.22;59.10;99876.31;7314571;19;130248;-38
2022/09/02 06:05:55;;;;;;;;;;;;;;;24.15;59.25;99858.66;7318170;19;129393;-38
2022/09/02 06:08:20;;;;;;;;;;;;;;;24.23;59.17;99871.88;7313796;19;129425;-38
2022/09/02 06:10:45;;;;;;;;;;;;;;;24.22;59.07;99864.97;7316417;19;129318;-38
2022/09/02 06:13:11;;;;;;;;;;;;;;;24.22;59.74;99870.22;7316465;19;130688;-38
2022/09/02 06:15:40;;;;;;;;;;;;;;;24.22;59.35;99876.31;7314191;19;129601;-39
2022/09/02 06:18:06;;;;;;;;;;;;;;;24.22;59.80;99871.06;7318270;19;129778;-38
2022/09/02 06:20:31;;;;;;;;;;;;;;;24.21;59.29;99863.34;7319013;19;129440;-38
2022/09/02 06:22:56;;;;;;;;;;;;;;;24.21;59.53;99874.66;7309289;19;130371;-39
2022/09/02 06:25:21;;;;;;;;;;;;;;;24.19;59.35;99871.38;7313709;19;129344;-38
2022/09/02 06:27:47;;;;;;;;;;;;;;;24.12;59.52;99858.97;7315935;19;129012;-38
2022/09/02 06:30:12;;;;;;;;;;;;;;;24.20;58.79;99873.00;7309480;19;129660;-38
2022/09/02 06:32:37;;;;;;;;;;;;;;;24.22;59.45;99872.84;7312566;19;129283;-37
2022/09/02 06:35:03;;;;;;;;;;;;;;;24.21;59.39;99874.66;7312926;19;129357;-38
2022/09/02 06:37:28;;;;;;;;;;;;;;;24.22;59.55;99875.50;7315518;19;129022;-38
2022/09/02 06:39:53;;;;;;;;;;;;;;;24.20;58.81;99873.00;7313553;19;129351;-38
2022/09/02 06:42:18;;;;;;;;;;;;;;;24.20;59.48;99869.56;7313886;19;130928;-38
2022/09/02 06:44:44;;;;;;;;;;;;;;;24.20;59.60;99873.00;7316215;19;130346;-38
2022/09/02 06:47:09;;;;;;;;;;;;;;;24.20;59.14;99880.91;7314896;19;128878;-38
2022/09/02 06:49:34;;;;;;;;;;;;;;;24.20;59.12;99875.63;7316063;19;129856;-37
2022/09/02 06:52:00;;;;;;;;;;;;;;;24.20;59.37;99877.44;7316145;19;130126;-38
2022/09/02 06:54:25;;;;;;;;;;;;;;;24.21;59.49;99876.47;7315228;19;131016;-38
2022/09/02 06:56:51;;;;;;;;;;;;;;;24.18;59.76;99868.91;7314773;19;129305;-38
2022/09/02 06:59:17;;;;;;;;;;;;;;;24.08;59.22;99858.44;7315845;19;129515;-38
2022/09/02 07:01:43;;;;;;;;;;;;;;;24.19;59.68;99881.88;7315017;19;129533;-38
2022/09/02 07:06:53;;;;;;;;;;;;;;;24.19;60.05;99881.03;7314424;19;129554;-38
2022/09/02 07:09:21;;;;;;;;;;;;;;;24.05;59.95;99866.63;7314144;19;129833;-38
2022/09/02 07:11:47;;;;;;;;;;;;;;;24.18;59.80;99882.03;7314756;19;130747;-38
2022/09/02 07:14:14;;;;;;;;;;;;;;;24.09;59.59;99869.78;7315948;19;130466;-38
2022/09/02 07:16:42;;;;;;;;;;;;;;;24.18;59.94;99884.66;7313641;19;129380;-38
2022/09/02 07:19:07;;;;;;;;;;;;;;;24.16;59.53;99887.41;7312726;19;129261;-38
2022/09/02 07:21:33;;;;;;;;;;;;;;;24.17;59.95;99890.88;7313464;19;130230;-38
2022/09/02 07:23:59;;;;;;;;;;;;;;;24.14;60.14;99884.13;7313167;19;130438;-38
2022/09/02 07:26:25;;;;;;;;;;;;;;;24.16;59.99;99887.41;7314313;19;128868;-38
2022/09/02 07:28:51;;;;;;;;;;;;;;;24.16;60.22;99886.59;7315744;19;128919;-38
2022/09/02 07:31:17;;;;;;;;;;;;;;;24.17;59.10;99889.06;7315922;19;129992;-38
2022/09/02 07:33:43;;;;;;;;;;;;;;;24.18;59.55;99890.72;7311700;19;129977;-37
2022/09/02 07:36:09;;;;;;;;;;;;;;;24.15;59.64;99891.03;7314407;19;128863;-37
2022/09/02 07:38:35;;;;;;;;;;;;;;;24.12;60.20;99886.06;7314788;19;128998;-38
2022/09/02 07:41:00;;;;;;;;;;;;;;;24.10;59.32;99885.38;7315546;19;130368;-38
2022/09/02 07:43:26;;;;;;;;;;;;;;;24.11;59.73;99889.66;7311542;19;130968;-38
2022/09/02 07:45:54;;;;;;;;;;;;;;;24.15;59.99;99885.78;7315839;19;129151;-38
2022/09/02 07:48:19;;;;;;;;;;;;;;;24.14;60.08;99893.81;7316781;19;129517;-38
2022/09/02 07:50:46;;;;;;;;;;;;;;;24.15;59.53;99890.19;7315387;19;129156;-38
2022/09/02 07:53:12;;;;;;;;;;;;;;;24.14;59.64;99896.44;7313727;19;129434;-38
2022/09/02 07:55:39;;;;;;;;;;;;;;;24.07;60.29;99874.34;7314413;19;129462;-38
2022/09/02 07:58:05;;;;;;;;;;;;;;;24.18;59.48;99895.16;7312875;19;129347;-38
2022/09/02 08:00:31;;;;;;;;;;;;;;;24.14;60.26;99894.63;7311356;19;131168;-38
2022/09/02 08:02:56;;;;;;;;;;;;;;;24.14;59.78;99894.63;7311568;19;129248;-38
2022/09/02 08:05:22;;;;;;;;;;;;;;;24.03;60.36;99871.19;7313951;19;129408;-39
2022/09/02 08:07:47;;;;;;;;;;;;;;;24.10;60.28;99888.00;7311194;19;129020;-38
2022/09/02 08:10:13;;;;;;;;;;;;;;;24.12;60.27;99886.06;7306441;19;130119;-37
2022/09/02 08:12:42;;;;;;;;;;;;;;;24.09;60.08;99891.63;7314415;19;130249;-38
2022/09/02 08:15:09;;;;;;;;;;;;;;;24.05;60.85;99884.16;7312257;19;129411;-38
2022/09/02 08:17:34;;;;;;;;;;;;;;;24.08;60.36;99884.69;7310666;19;129336;-38
2022/09/02 08:20:00;;;;;;;;;;;;;;;23.98;60.76;99883.94;7309840;19;129230;-39
2022/09/02 08:22:25;;;;;;;;;;;;;;;23.90;61.57;99889.06;7311764;19;129191;-37
2022/09/02 08:24:51;;;;;;;;;;;;;;;23.93;60.85;99886.16;7314190;19;128913;-38
2022/09/02 08:27:17;;;;;;;;;;;;;;;23.97;61.01;99884.91;7308262;19;129372;-38
2022/09/02 08:29:42;;;;;;;;;;;;;;;23.97;61.17;99886.69;7312904;19;129871;-38
2022/09/02 08:32:08;;;;;;;;;;;;;;;23.90;61.36;99886.44;7311912;19;129673;-38
2022/09/02 08:34:33;;;;;;;;;;;;;;;23.96;60.41;99879.78;7314353;19;129300;-38
2022/09/02 08:36:59;;;;;;;;;;;;;;;24.03;60.86;99880.88;7311941;19;129358;-38
2022/09/02 08:39:24;;;;;;;;;;;;;;;23.98;60.34;99883.94;7312617;19;129318;-38
2022/09/02 08:41:53;;;;;;;;;;;;;;;23.96;60.82;99869.28;7312543;19;131401;-38
2022/09/02 08:44:23;;;;;;;;;;;;;;;24.06;61.30;99880.59;7310226;19;129287;-38
2022/09/02 08:46:55;;;;;;;;;;;;;;;24.07;60.78;99877.81;7312813;19;129195;-37
2022/09/02 08:49:27;;;;;;;;;;;;;;;24.02;60.59;99877.44;7311715;19;129443;-38
2022/09/02 08:51:56;;;;;;;;;;;;;;;24.04;60.58;99872.84;7312502;19;130722;-38
2022/09/02 08:54:29;;;;;;;;;;;;;;;24.08;60.54;99871.56;7311095;19;128910;-38
2022/09/02 08:56:55;;;;;;;;;;;;;;;24.09;60.37;99872.41;7311617;19;129445;-38
2022/09/02 08:59:21;;;;;;;;;;;;;;;24.08;60.38;99861.06;7311309;19;129064;-38
2022/09/02 09:02:05;;;;;;;;;;;;;;;24.12;60.71;99875.56;7312791;19;130223;-38
2022/09/02 09:04:46;;;;;;;;;;;;;;;24.02;61.15;99868.72;7310064;19;129350;-38
2022/09/02 09:07:24;;;;;;;;;;;;;;;23.97;60.71;99850.75;7311670;19;129896;-38
2022/09/02 09:10:07;;;;;;;;;;;;;;;23.98;61.23;99856.88;7307241;19;129705;-38
2022/09/02 09:12:41;;;;;;;;;;;;;;;23.99;61.33;99867.22;7312447;19;130392;-38
2022/09/02 09:15:10;;;;;;;;;;;;;;;24.00;61.15;99861.00;7312669;19;129547;-38
2022/09/02 09:17:55;;;;;;;;;;;;;;;24.06;60.41;99859.56;7307861;19;129188;-37
2022/09/02 09:20:24;;;;;;;;;;;;;;;23.97;60.26;99827.13;7312564;19;129117;-38
2022/09/02 09:22:55;;;;;;;;;;;;;;;24.02;60.73;99847.69;7307845;19;130414;-38
2022/09/02 09:25:28;;;;;;;;;;;;;;;24.09;60.78;99849.59;7312122;19;128954;-38
2022/09/02 09:27:53;;;;;;;;;;;;;;;24.15;61.16;99845.53;7307187;19;130046;-39
2022/09/02 09:30:19;;;;;;;;;;;;;;;24.11;60.72;99842.38;7310495;19;129638;-37
2022/09/02 09:32:46;;;;;;;;;;;;;;;24.10;60.94;99851.25;7309868;19;129200;-39
2022/09/02 09:35:13;;;;;;;;;;;;;;;24.09;60.49;99849.59;7310221;19;129764;-38
2022/09/02 09:37:39;;;;;;;;;;;;;;;24.09;60.93;99844.34;7309889;19;129217;-39
2022/09/02 09:40:14;;;;;;;;;;;;;;;24.11;61.04;99849.44;7307802;19;129311;-39
2022/09/02 09:42:39;;;;;;;;;;;;;;;24.08;60.22;99850.56;7315540;19;129223;-38
2022/09/02 09:45:23;;;;;;;;;;;;;;;24.08;60.18;99842.69;7317967;19;128905;-38
2022/09/02 09:48:06;;;;;;;;;;;;;;;24.09;60.86;99844.34;7316105;19;129534;-38
2022/09/02 09:50:32;;;;;;;;;;;;;;;24.11;60.41;99834.50;7318562;19;131128;-39
2022/09/02 09:53:16;;;;;;;;;;;;;;;24.01;61.47;99839.03;7314910;19;129360;-38
2022/09/02 09:56:04;;;;;;;;;;;;;;;24.01;60.97;99840.81;7318178;19;129018;-38
2022/09/02 09:58:29;;;;;;;;;;;;;;;24.09;61.45;99843.50;7317224;19;129852;-37
2022/09/02 10:00:59;;;;;;;;;;;;;;;24.04;60.94;99846.59;7318008;19;129253;-38
2022/09/02 10:03:25;;;;;;;;;;;;;;;24.09;61.31;99844.34;7314814;19;129751;-37
2022/09/02 10:05:55;;;;;;;;;;;;;;;23.93;60.62;99822.31;7318371;19;130688;-38
2022/09/02 10:08:25;;;;;;;;;;;;;;;24.07;61.08;99838.41;7316009;19;129108;-38
2022/09/02 10:11:00;;;;;;;;;;;;;;;23.93;61.15;99817.06;7318658;19;129008;-38
2022/09/02 10:13:30;;;;;;;;;;;;;;;23.95;61.02;99815.94;7314651;19;130534;-38
2022/09/02 10:16:14;;;;;;;;;;;;;;;24.02;61.25;99827.53;7320641;19;129500;-39
2022/09/02 10:18:39;;;;;;;;;;;;;;;24.04;61.09;99825.59;7312034;19;129915;-38
2022/09/02 10:21:24;;;;;;;;;;;;;;;24.07;60.43;99824.44;7317812;19;130289;-38
2022/09/02 10:24:02;;;;;;;;;;;;;;;24.00;61.50;99826.00;7315854;19;130338;-38
2022/09/02 10:26:34;;;;;;;;;;;;;;;24.03;61.11;99823.91;7314270;19;129451;-38
2022/09/02 10:29:03;;;;;;;;;;;;;;;24.02;60.61;99822.28;7312959;19;129678;-38
2022/09/02 10:31:48;;;;;;;;;;;;;;;24.06;61.48;99821.00;7317556;19;130068;-38
2022/09/02 10:34:19;;;;;;;;;;;;;;;24.10;61.23;99826.75;7317390;19;130402;-38
2022/09/02 10:36:44;;;;;;;;;;;;;;;24.06;61.42;99812.28;7315500;19;129494;-37
2022/09/02 10:39:32;;;;;;;;;;;;;;;24.05;60.85;99816.72;7313608;19;129565;-38
2022/09/02 10:42:08;;;;;;;;;;;;;;;23.95;61.03;99818.56;7317398;19;129915;-38
2022/09/02 10:44:43;;;;;;;;;;;;;;;23.96;61.06;99807.09;7308268;19;129164;-37
2022/09/02 10:47:23;;;;;;;;;;;;;;;24.03;61.49;99817.84;7315751;19;129007;-38
2022/09/02 10:49:48;;;;;;;;;;;;;;;24.08;61.52;99811.16;7314175;19;130983;-38
2022/09/02 10:52:26;;;;;;;;;;;;;;;24.04;60.62;99809.81;7314560;19;130492;-38
2022/09/02 10:55:23;;;;;;;;;;;;;;;24.05;60.18;99811.47;7314679;19;129246;-37
2022/09/02 10:57:58;;;;;;;;;;;;;;;24.03;61.33;99802.91;7310552;19;129452;-38
2022/09/02 11:00:25;;;;;;;;;;;;;;;24.08;61.47;99805.91;7318504;19;128872;-38
2022/09/02 11:03:09;;;;;;;;;;;;;;;24.10;60.78;99803.13;7312505;19;129333;-38
2022/09/02 11:05:34;;;;;;;;;;;;;;;24.04;61.13;99804.56;7317211;19;130237;-38
2022/09/02 11:08:04;;;;;;;;;;;;;;;24.04;60.95;99801.94;7312996;19;130180;-38
2022/09/02 11:10:39;;;;;;;;;;;;;;;24.01;61.17;99796.16;7314224;19;128890;-38
2022/09/02 11:13:28;;;;;;;;;;;;;;;23.99;61.46;99796.31;7313553;19;129386;-37
2022/09/02 11:15:59;;;;;;;;;;;;;;;23.90;61.17;99777.97;7315370;19;129559;-38
2022/09/02 11:18:31;;;;;;;;;;;;;;;24.03;60.93;99802.91;7315839;19;129474;-38
2022/09/02 11:21:16;;;;;;;;;;;;;;;24.04;61.57;99801.94;7315217;19;129416;-38
2022/09/02 11:24:11;;;;;;;;;;;;;;;24.06;61.24;99797.38;7313045;19;130165;-38
2022/09/02 11:26:39;;;;;;;;;;;;;;;24.08;61.17;99794.59;7313490;19;130322;-37
2022/09/02 11:29:11;;;;;;;;;;;;;;;23.99;61.09;99780.56;7316071;19;129209;-38
2022/09/02 11:31:44;;;;;;;;;;;;;;;24.07;61.20;99788.50;7313697;19;129015;-38
2022/09/02 11:34:13;;;;;;;;;;;;;;;24.10;61.60;99793.44;7315587;19;130754;-38
2022/09/02 11:36:39;;;;;;;;;;;;;;;24.04;61.12;99794.06;7314530;19;129922;-37
2022/09/02 11:39:04;;;;;;;;;;;;;;;23.99;60.99;99791.06;7315419;19;129303;-38
2022/09/02 11:41:33;;;;;;;;;;;;;;;24.02;61.06;99785.50;7315061;19;129514;-37
2022/09/02 11:44:12;;;;;;;;;;;;;;;23.99;61.33;99791.06;7312904;19;130286;-38
2022/09/02 11:46:56;;;;;;;;;;;;;;;24.01;62.28;99788.28;7312247;19;131353;-38
2022/09/02 11:49:30;;;;;;;;;;;;;;;23.98;61.41;99786.75;7315025;19;128882;-37
2022/09/02 11:51:55;;;;;;;;;;;;;;;23.99;61.47;99782.34;7312822;19;129314;-37
2022/09/02 11:54:22;;;;;;;;;;;;;;;24.02;61.01;99774.16;7314100;19;129933;-36
2022/09/02 11:56:49;;;;;;;;;;;;;;;24.03;61.55;99776.63;7311618;19;129802;-38
2022/09/02 11:59:43;;;;;;;;;;;;;;;24.05;61.35;99773.84;7309842;19;129541;-37
2022/09/02 12:02:09;;;;;;;;;;;;;;;24.05;61.34;99769.44;7313815;19;130397;-36
2022/09/02 12:04:35;;;;;;;;;;;;;;;24.06;61.07;99771.09;7311336;19;130246;-38
2022/09/02 12:07:06;;;;;;;;;;;;;;;24.05;60.93;99777.31;7312607;19;130934;-38
2022/09/02 12:09:51;;;;;;;;;;;;;;;24.03;60.85;99776.63;7314785;19;129327;-38
2022/09/02 12:12:44;;;;;;;;;;;;;;;23.90;60.98;99755.16;7312703;19;129102;-38
2022/09/02 12:15:13;;;;;;;;;;;;;;;23.93;61.77;99762.72;7308239;19;130337;-37
2022/09/02 12:17:45;;;;;;;;;;;;;;;23.98;61.23;99757.06;7305151;19;129270;-38
2022/09/02 12:20:30;;;;;;;;;;;;;;;24.04;60.73;99752.03;7312883;19;129011;-37
2022/09/02 12:22:57;;;;;;;;;;;;;;;24.03;61.24;99745.13;7312653;19;129021;-38
2022/09/02 12:25:25;;;;;;;;;;;;;;;23.91;61.53;99741.06;7312560;19;129987;-38
2022/09/02 12:28:08;;;;;;;;;;;;;;;23.86;61.25;99727.56;7310763;19;129427;-38
2022/09/02 12:31:06;;;;;;;;;;;;;;;23.88;61.42;99738.72;7314416;19;129231;-38
2022/09/02 12:33:35;;;;;;;;;;;;;;;23.95;62.26;99736.31;7312783;19;129266;-38
2022/09/02 12:36:03;;;;;;;;;;;;;;;23.88;62.59;99735.28;7313289;19;129100;-38
2022/09/02 12:38:28;;;;;;;;;;;;;;;23.57;62.86;99737.44;7310999;19;130454;-38
2022/09/02 12:41:21;;;;;;;;;;;;;;;23.70;62.44;99735.25;7313478;19;129261;-38
2022/09/02 12:44:05;;;;;;;;;;;;;;;23.81;61.78;99729.81;7309284;19;128814;-39
2022/09/02 12:46:45;;;;;;;;;;;;;;;23.88;62.00;99728.22;7313251;19;128950;-39